sensor_id;sensor_type;location;lat;lon;timestamp;temperature;humidity
26575;DHT22;67165;50.256;10.978;2023-10-19T00:00:31;7.70;98.00
26575;DHT22;67165;50.256;10.978;2023-10-19T00:02:59;7.70;98.00
26575;DHT22;67165;50.256;10.978;2023-10-19T00:05:31;7.60;98.00
26575;DHT22;67165;50.256;10.978;2023-10-19T00:07:58;7.50;98.00
26575;DHT22;67165;50.256;10.978;2023-10-19T00:10:25;7.50;98.00
26575;DHT22;67165;50.256;10.978;2023-10-19T00:12:54;7.60;98.00
26575;DHT22;67165;50.256;10.978;2023-10-19T00:15:26;7.60;98.00
26575;DHT22;67165;50.256;10.978;2023-10-19T00:17:56;7.60;98.00
26575;DHT22;67165;50.256;10.978;2023-10-19T00:20:24;7.60;98.00
26575;DHT22;67165;50.256;10.978;2023-10-19T00:23:15;7.60;98.00
26575;DHT22;67165;50.256;10.978;2023-10-19T00:25:44;7.50;98.00
26575;DHT22;67165;50.256;10.978;2023-10-19T00:28:15;7.60;98.00
26575;DHT22;67165;50.256;10.978;2023-10-19T00:30:43;7.60;98.00
26575;DHT22;67165;50.256;10.978;2023-10-19T00:33:10;7.60;98.00
26575;DHT22;67165;50.256;10.978;2023-10-19T00:35:54;7.60;98.00
26575;DHT22;67165;50.256;10.978;2023-10-19T00:38:25;7.60;98.00
26575;DHT22;67165;50.256;10.978;2023-10-19T00:41:07;7.60;98.00
26575;DHT22;67165;50.256;10.978;2023-10-19T00:43:37;7.60;98.00
26575;DHT22;67165;50.256;10.978;2023-10-19T00:46:09;7.60;98.00
26575;DHT22;67165;50.256;10.978;2023-10-19T00:48:42;7.60;98.00
26575;DHT22;67165;50.256;10.978;2023-10-19T00:51:12;7.60;98.00
26575;DHT22;67165;50.256;10.978;2023-10-19T00:54:10;7.70;98.00
26575;DHT22;67165;50.256;10.978;2023-10-19T00:56:43;7.70;98.00
26575;DHT22;67165;50.256;10.978;2023-10-19T00:59:21;7.70;98.00
26575;DHT22;67165;50.256;10.978;2023-10-19T01:01:54;7.70;98.00
26575;DHT22;67165;50.256;10.978;2023-10-19T01:04:21;7.70;98.00
26575;DHT22;67165;50.256;10.978;2023-10-19T01:06:57;7.70;98.00
26575;DHT22;67165;50.256;10.978;2023-10-19T01:09:39;7.70;98.00
26575;DHT22;67165;50.256;10.978;2023-10-19T01:12:06;7.70;98.00
26575;DHT22;67165;50.256;10.978;2023-10-19T01:15:10;7.70;98.00
26575;DHT22;67165;50.256;10.978;2023-10-19T01:17:52;7.70;98.00
26575;DHT22;67165;50.256;10.978;2023-10-19T01:20:20;7.70;98.00
26575;DHT22;67165;50.256;10.978;2023-10-19T01:22:49;7.70;98.00
26575;DHT22;67165;50.256;10.978;2023-10-19T01:25:21;7.70;98.00
26575;DHT22;67165;50.256;10.978;2023-10-19T01:28:01;7.70;98.00
26575;DHT22;67165;50.256;10.978;2023-10-19T01:30:32;7.70;98.00
26575;DHT22;67165;50.256;10.978;2023-10-19T01:32:59;7.70;98.00
26575;DHT22;67165;50.256;10.978;2023-10-19T01:35:24;7.70;98.00
26575;DHT22;67165;50.256;10.978;2023-10-19T01:37:50;7.70;98.00
26575;DHT22;67165;50.256;10.978;2023-10-19T01:40:15;7.70;98.00
26575;DHT22;67165;50.256;10.978;2023-10-19T01:42:46;7.70;98.00
26575;DHT22;67165;50.256;10.978;2023-10-19T01:45:12;7.70;98.00
26575;DHT22;67165;50.256;10.978;2023-10-19T01:47:37;7.70;98.00
26575;DHT22;67165;50.256;10.978;2023-10-19T01:50:06;7.70;98.00
26575;DHT22;67165;50.256;10.978;2023-10-19T01:52:32;7.70;98.00
26575;DHT22;67165;50.256;10.978;2023-10-19T01:54:58;7.70;98.00
26575;DHT22;67165;50.256;10.978;2023-10-19T01:57:33;7.80;98.00
26575;DHT22;67165;50.256;10.978;2023-10-19T02:00:00;7.70;98.00
26575;DHT22;67165;50.256;10.978;2023-10-19T02:02:34;7.70;98.00
26575;DHT22;67165;50.256;10.978;2023-10-19T02:05:00;7.70;98.00
26575;DHT22;67165;50.256;10.978;2023-10-19T02:07:29;7.70;98.00
26575;DHT22;67165;50.256;10.978;2023-10-19T02:09:55;7.70;98.00
26575;DHT22;67165;50.256;10.978;2023-10-19T02:12:21;7.80;98.00
26575;DHT22;67165;50.256;10.978;2023-10-19T02:14:47;7.80;98.00
26575;DHT22;67165;50.256;10.978;2023-10-19T02:17:12;7.80;98.00
26575;DHT22;67165;50.256;10.978;2023-10-19T02:19:40;7.80;98.00
26575;DHT22;67165;50.256;10.978;2023-10-19T02:22:06;7.80;98.00
26575;DHT22;67165;50.256;10.978;2023-10-19T02:24:37;7.80;98.00
26575;DHT22;67165;50.256;10.978;2023-10-19T02:27:04;7.80;98.00
26575;DHT22;67165;50.256;10.978;2023-10-19T02:29:30;7.70;98.00
26575;DHT22;67165;50.256;10.978;2023-10-19T02:31:57;7.80;98.00
26575;DHT22;67165;50.256;10.978;2023-10-19T02:34:23;7.80;98.00
26575;DHT22;67165;50.256;10.978;2023-10-19T02:36:48;7.80;98.00
26575;DHT22;67165;50.256;10.978;2023-10-19T02:39:15;7.80;98.00
26575;DHT22;67165;50.256;10.978;2023-10-19T02:41:44;7.70;98.00
26575;DHT22;67165;50.256;10.978;2023-10-19T02:44:18;7.70;98.00
26575;DHT22;67165;50.256;10.978;2023-10-19T02:46:51;7.70;98.00
26575;DHT22;67165;50.256;10.978;2023-10-19T02:49:18;7.80;98.00
26575;DHT22;67165;50.256;10.978;2023-10-19T02:51:44;7.80;98.00
26575;DHT22;67165;50.256;10.978;2023-10-19T02:54:11;7.80;98.00
26575;DHT22;67165;50.256;10.978;2023-10-19T02:56:51;7.80;98.00
26575;DHT22;67165;50.256;10.978;2023-10-19T02:59:19;7.80;98.00
26575;DHT22;67165;50.256;10.978;2023-10-19T03:01:53;7.80;98.00
26575;DHT22;67165;50.256;10.978;2023-10-19T03:04:26;7.80;98.00
26575;DHT22;67165;50.256;10.978;2023-10-19T03:06:54;7.80;98.00
26575;DHT22;67165;50.256;10.978;2023-10-19T03:09:21;7.80;98.00
26575;DHT22;67165;50.256;10.978;2023-10-19T03:11:52;7.80;98.00
26575;DHT22;67165;50.256;10.978;2023-10-19T03:14:20;7.80;98.00
26575;DHT22;67165;50.256;10.978;2023-10-19T03:16:45;7.80;98.00
26575;DHT22;67165;50.256;10.978;2023-10-19T03:19:11;7.80;98.00
26575;DHT22;67165;50.256;10.978;2023-10-19T03:21:39;7.80;98.00
26575;DHT22;67165;50.256;10.978;2023-10-19T03:24:15;7.80;98.00
26575;DHT22;67165;50.256;10.978;2023-10-19T03:26:52;7.80;98.00
26575;DHT22;67165;50.256;10.978;2023-10-19T03:29:22;7.90;98.00
26575;DHT22;67165;50.256;10.978;2023-10-19T03:31:56;7.90;98.00
26575;DHT22;67165;50.256;10.978;2023-10-19T03:34:22;7.90;98.00
26575;DHT22;67165;50.256;10.978;2023-10-19T03:36:49;7.90;98.00
26575;DHT22;67165;50.256;10.978;2023-10-19T03:39:20;7.90;98.00
26575;DHT22;67165;50.256;10.978;2023-10-19T03:41:46;7.80;98.00
26575;DHT22;67165;50.256;10.978;2023-10-19T03:44:12;7.80;98.00
26575;DHT22;67165;50.256;10.978;2023-10-19T03:47:04;7.80;98.00
26575;DHT22;67165;50.256;10.978;2023-10-19T03:49:30;7.80;98.00
26575;DHT22;67165;50.256;10.978;2023-10-19T03:52:01;7.80;98.00
26575;DHT22;67165;50.256;10.978;2023-10-19T03:54:48;7.80;98.00
26575;DHT22;67165;50.256;10.978;2023-10-19T03:57:16;7.80;98.00
26575;DHT22;67165;50.256;10.978;2023-10-19T03:59:45;7.80;98.00
26575;DHT22;67165;50.256;10.978;2023-10-19T04:02:12;7.80;98.00
26575;DHT22;67165;50.256;10.978;2023-10-19T04:04:40;7.80;98.00
26575;DHT22;67165;50.256;10.978;2023-10-19T04:07:09;7.80;98.00
26575;DHT22;67165;50.256;10.978;2023-10-19T04:09:55;7.80;98.00
26575;DHT22;67165;50.256;10.978;2023-10-19T04:12:27;7.80;98.00
26575;DHT22;67165;50.256;10.978;2023-10-19T04:15:02;7.80;98.00
26575;DHT22;67165;50.256;10.978;2023-10-19T04:17:38;7.80;98.00
26575;DHT22;67165;50.256;10.978;2023-10-19T04:20:09;7.80;98.00
26575;DHT22;67165;50.256;10.978;2023-10-19T04:22:40;7.80;98.00
26575;DHT22;67165;50.256;10.978;2023-10-19T04:25:06;7.90;98.00
26575;DHT22;67165;50.256;10.978;2023-10-19T04:27:32;7.90;98.00
26575;DHT22;67165;50.256;10.978;2023-10-19T04:30:01;7.80;98.00
26575;DHT22;67165;50.256;10.978;2023-10-19T04:32:27;7.80;98.00
26575;DHT22;67165;50.256;10.978;2023-10-19T04:34:53;7.80;98.00
26575;DHT22;67165;50.256;10.978;2023-10-19T04:37:19;7.90;98.00
26575;DHT22;67165;50.256;10.978;2023-10-19T04:39:45;7.90;98.00
26575;DHT22;67165;50.256;10.978;2023-10-19T04:42:11;7.90;98.00
26575;DHT22;67165;50.256;10.978;2023-10-19T04:44:37;7.90;98.00
26575;DHT22;67165;50.256;10.978;2023-10-19T04:47:03;7.90;98.00
26575;DHT22;67165;50.256;10.978;2023-10-19T04:49:29;7.90;98.00
26575;DHT22;67165;50.256;10.978;2023-10-19T04:51:54;8.00;98.00
26575;DHT22;67165;50.256;10.978;2023-10-19T04:54:20;8.00;98.00
26575;DHT22;67165;50.256;10.978;2023-10-19T04:56:46;7.90;98.00
26575;DHT22;67165;50.256;10.978;2023-10-19T04:59:11;7.90;98.00
26575;DHT22;67165;50.256;10.978;2023-10-19T05:01:37;8.00;98.00
26575;DHT22;67165;50.256;10.978;2023-10-19T05:04:04;7.90;98.00
26575;DHT22;67165;50.256;10.978;2023-10-19T05:06:29;8.00;98.00
26575;DHT22;67165;50.256;10.978;2023-10-19T05:08:55;8.00;98.00
26575;DHT22;67165;50.256;10.978;2023-10-19T05:11:22;8.10;98.00
26575;DHT22;67165;50.256;10.978;2023-10-19T05:13:48;8.00;98.00
26575;DHT22;67165;50.256;10.978;2023-10-19T05:16:14;8.00;98.00
26575;DHT22;67165;50.256;10.978;2023-10-19T05:18:39;8.00;98.00
26575;DHT22;67165;50.256;10.978;2023-10-19T05:21:05;8.00;98.00
26575;DHT22;67165;50.256;10.978;2023-10-19T05:23:31;8.00;98.00
26575;DHT22;67165;50.256;10.978;2023-10-19T05:26:14;8.00;98.00
26575;DHT22;67165;50.256;10.978;2023-10-19T05:28:40;8.10;98.00
26575;DHT22;67165;50.256;10.978;2023-10-19T05:31:08;8.10;98.00
26575;DHT22;67165;50.256;10.978;2023-10-19T05:33:34;8.10;98.00
26575;DHT22;67165;50.256;10.978;2023-10-19T05:35:59;8.10;98.00
26575;DHT22;67165;50.256;10.978;2023-10-19T05:38:26;8.10;98.00
26575;DHT22;67165;50.256;10.978;2023-10-19T05:40:52;8.10;98.00
26575;DHT22;67165;50.256;10.978;2023-10-19T05:43:18;8.00;98.00
26575;DHT22;67165;50.256;10.978;2023-10-19T05:45:44;8.10;98.00
26575;DHT22;67165;50.256;10.978;2023-10-19T05:48:10;8.10;98.00
26575;DHT22;67165;50.256;10.978;2023-10-19T05:50:37;8.10;98.00
26575;DHT22;67165;50.256;10.978;2023-10-19T05:53:03;8.10;98.00
26575;DHT22;67165;50.256;10.978;2023-10-19T05:55:30;8.10;98.00
26575;DHT22;67165;50.256;10.978;2023-10-19T05:57:56;8.10;98.00
26575;DHT22;67165;50.256;10.978;2023-10-19T06:00:22;8.10;98.00
26575;DHT22;67165;50.256;10.978;2023-10-19T06:02:51;8.10;98.00
26575;DHT22;67165;50.256;10.978;2023-10-19T06:05:18;8.10;98.00
26575;DHT22;67165;50.256;10.978;2023-10-19T06:07:48;8.10;98.00
26575;DHT22;67165;50.256;10.978;2023-10-19T06:10:19;8.10;98.00
26575;DHT22;67165;50.256;10.978;2023-10-19T06:12:46;8.10;98.00
26575;DHT22;67165;50.256;10.978;2023-10-19T06:15:14;8.10;98.00
26575;DHT22;67165;50.256;10.978;2023-10-19T06:17:41;8.10;98.00
26575;DHT22;67165;50.256;10.978;2023-10-19T06:20:08;8.20;98.00
26575;DHT22;67165;50.256;10.978;2023-10-19T06:22:53;8.20;98.00
26575;DHT22;67165;50.256;10.978;2023-10-19T06:25:20;8.10;98.00
26575;DHT22;67165;50.256;10.978;2023-10-19T06:27:47;8.20;98.00
26575;DHT22;67165;50.256;10.978;2023-10-19T06:30:14;8.20;98.00
26575;DHT22;67165;50.256;10.978;2023-10-19T06:32:46;8.20;98.00
26575;DHT22;67165;50.256;10.978;2023-10-19T06:35:12;8.20;98.00
26575;DHT22;67165;50.256;10.978;2023-10-19T06:37:38;8.20;98.00
26575;DHT22;67165;50.256;10.978;2023-10-19T06:40:04;8.20;98.00
26575;DHT22;67165;50.256;10.978;2023-10-19T06:42:31;8.20;98.00
26575;DHT22;67165;50.256;10.978;2023-10-19T06:44:57;8.20;98.00
26575;DHT22;67165;50.256;10.978;2023-10-19T06:47:23;8.20;98.00
26575;DHT22;67165;50.256;10.978;2023-10-19T06:49:49;8.20;98.00
26575;DHT22;67165;50.256;10.978;2023-10-19T06:52:15;8.20;98.00
26575;DHT22;67165;50.256;10.978;2023-10-19T06:54:41;8.20;98.00
26575;DHT22;67165;50.256;10.978;2023-10-19T06:57:07;8.20;98.00
26575;DHT22;67165;50.256;10.978;2023-10-19T06:59:35;8.20;98.00
26575;DHT22;67165;50.256;10.978;2023-10-19T07:02:02;8.20;98.00
26575;DHT22;67165;50.256;10.978;2023-10-19T07:04:28;8.20;98.00
26575;DHT22;67165;50.256;10.978;2023-10-19T07:06:55;8.20;98.00
26575;DHT22;67165;50.256;10.978;2023-10-19T07:09:20;8.20;98.00
26575;DHT22;67165;50.256;10.978;2023-10-19T07:11:47;8.20;98.00
26575;DHT22;67165;50.256;10.978;2023-10-19T07:14:13;8.20;98.00
26575;DHT22;67165;50.256;10.978;2023-10-19T07:16:40;8.30;98.00
26575;DHT22;67165;50.256;10.978;2023-10-19T07:19:06;8.30;98.00
26575;DHT22;67165;50.256;10.978;2023-10-19T07:21:31;8.40;98.00
26575;DHT22;67165;50.256;10.978;2023-10-19T07:24:01;8.40;98.00
26575;DHT22;67165;50.256;10.978;2023-10-19T07:26:30;8.30;98.00
26575;DHT22;67165;50.256;10.978;2023-10-19T07:28:59;8.40;98.00
26575;DHT22;67165;50.256;10.978;2023-10-19T07:31:25;8.30;98.00
26575;DHT22;67165;50.256;10.978;2023-10-19T07:33:53;8.40;98.00
26575;DHT22;67165;50.256;10.978;2023-10-19T07:36:22;8.40;98.00
26575;DHT22;67165;50.256;10.978;2023-10-19T07:38:50;8.40;98.00
26575;DHT22;67165;50.256;10.978;2023-10-19T07:41:17;8.50;98.00
26575;DHT22;67165;50.256;10.978;2023-10-19T07:43:43;8.50;98.00
26575;DHT22;67165;50.256;10.978;2023-10-19T07:46:12;8.50;98.00
26575;DHT22;67165;50.256;10.978;2023-10-19T07:48:37;8.60;98.00
26575;DHT22;67165;50.256;10.978;2023-10-19T07:51:04;8.60;98.00
26575;DHT22;67165;50.256;10.978;2023-10-19T07:53:30;8.60;98.00
26575;DHT22;67165;50.256;10.978;2023-10-19T07:55:56;8.70;98.00
26575;DHT22;67165;50.256;10.978;2023-10-19T07:58:22;8.70;98.00
26575;DHT22;67165;50.256;10.978;2023-10-19T08:00:48;8.70;98.00
26575;DHT22;67165;50.256;10.978;2023-10-19T08:03:14;8.80;98.00
26575;DHT22;67165;50.256;10.978;2023-10-19T08:05:41;8.80;98.00
26575;DHT22;67165;50.256;10.978;2023-10-19T08:08:07;8.90;98.00
26575;DHT22;67165;50.256;10.978;2023-10-19T08:10:33;8.90;98.00
26575;DHT22;67165;50.256;10.978;2023-10-19T08:13:02;8.90;98.00
26575;DHT22;67165;50.256;10.978;2023-10-19T08:15:27;9.00;98.00
26575;DHT22;67165;50.256;10.978;2023-10-19T08:17:55;9.00;98.00
26575;DHT22;67165;50.256;10.978;2023-10-19T08:20:21;9.00;98.00
26575;DHT22;67165;50.256;10.978;2023-10-19T08:22:56;9.00;98.00
26575;DHT22;67165;50.256;10.978;2023-10-19T08:25:23;9.10;98.00
26575;DHT22;67165;50.256;10.978;2023-10-19T08:27:49;9.10;98.00
26575;DHT22;67165;50.256;10.978;2023-10-19T08:30:20;9.10;98.00
26575;DHT22;67165;50.256;10.978;2023-10-19T08:32:46;9.20;98.00
26575;DHT22;67165;50.256;10.978;2023-10-19T08:35:18;9.20;98.00
26575;DHT22;67165;50.256;10.978;2023-10-19T08:37:50;9.20;98.00
26575;DHT22;67165;50.256;10.978;2023-10-19T08:40:15;9.20;98.00
26575;DHT22;67165;50.256;10.978;2023-10-19T08:42:43;9.30;98.00
26575;DHT22;67165;50.256;10.978;2023-10-19T08:45:10;9.30;98.00
26575;DHT22;67165;50.256;10.978;2023-10-19T08:47:45;9.20;98.00
26575;DHT22;67165;50.256;10.978;2023-10-19T08:50:14;9.20;98.00
26575;DHT22;67165;50.256;10.978;2023-10-19T08:52:41;9.20;98.00
26575;DHT22;67165;50.256;10.978;2023-10-19T08:55:08;9.20;98.00
26575;DHT22;67165;50.256;10.978;2023-10-19T08:57:36;9.20;98.00
26575;DHT22;67165;50.256;10.978;2023-10-19T09:00:01;9.20;98.00
26575;DHT22;67165;50.256;10.978;2023-10-19T09:02:31;9.20;98.00
26575;DHT22;67165;50.256;10.978;2023-10-19T09:04:58;9.30;98.00
26575;DHT22;67165;50.256;10.978;2023-10-19T09:07:25;9.30;98.00
26575;DHT22;67165;50.256;10.978;2023-10-19T09:09:56;9.40;98.00
26575;DHT22;67165;50.256;10.978;2023-10-19T09:12:22;9.40;98.00
26575;DHT22;67165;50.256;10.978;2023-10-19T09:14:49;9.50;98.00
26575;DHT22;67165;50.256;10.978;2023-10-19T09:17:15;9.60;98.00
26575;DHT22;67165;50.256;10.978;2023-10-19T09:19:45;9.60;98.00
26575;DHT22;67165;50.256;10.978;2023-10-19T09:22:13;9.70;98.00
26575;DHT22;67165;50.256;10.978;2023-10-19T09:24:46;9.80;98.00
26575;DHT22;67165;50.256;10.978;2023-10-19T09:27:12;9.90;98.00
26575;DHT22;67165;50.256;10.978;2023-10-19T09:29:39;9.90;98.00
26575;DHT22;67165;50.256;10.978;2023-10-19T09:32:07;10.10;98.00
26575;DHT22;67165;50.256;10.978;2023-10-19T09:34:34;10.10;98.00
26575;DHT22;67165;50.256;10.978;2023-10-19T09:37:00;10.10;98.00
26575;DHT22;67165;50.256;10.978;2023-10-19T09:39:29;10.20;98.00
26575;DHT22;67165;50.256;10.978;2023-10-19T09:42:08;10.30;98.00
26575;DHT22;67165;50.256;10.978;2023-10-19T09:44:43;10.30;98.00
26575;DHT22;67165;50.256;10.978;2023-10-19T09:47:22;10.50;98.00
26575;DHT22;67165;50.256;10.978;2023-10-19T09:49:51;10.50;98.00
26575;DHT22;67165;50.256;10.978;2023-10-19T09:52:17;10.60;98.00
26575;DHT22;67165;50.256;10.978;2023-10-19T09:55:13;10.70;98.00
26575;DHT22;67165;50.256;10.978;2023-10-19T09:57:53;10.80;98.00
26575;DHT22;67165;50.256;10.978;2023-10-19T10:00:21;10.60;98.00
26575;DHT22;67165;50.256;10.978;2023-10-19T10:02:53;10.70;98.00
26575;DHT22;67165;50.256;10.978;2023-10-19T10:10:43;10.70;98.00
26575;DHT22;67165;50.256;10.978;2023-10-19T10:15:54;10.80;98.00
26575;DHT22;67165;50.256;10.978;2023-10-19T10:18:20;10.80;98.00
26575;DHT22;67165;50.256;10.978;2023-10-19T10:20:46;10.80;98.00
26575;DHT22;67165;50.256;10.978;2023-10-19T10:23:20;10.80;98.00
26575;DHT22;67165;50.256;10.978;2023-10-19T10:25:52;10.80;98.00
26575;DHT22;67165;50.256;10.978;2023-10-19T10:28:19;10.90;98.00
26575;DHT22;67165;50.256;10.978;2023-10-19T10:31:21;10.90;98.00
26575;DHT22;67165;50.256;10.978;2023-10-19T10:33:53;11.00;98.00
26575;DHT22;67165;50.256;10.978;2023-10-19T10:36:23;11.10;98.00
26575;DHT22;67165;50.256;10.978;2023-10-19T10:38:50;11.10;98.00
26575;DHT22;67165;50.256;10.978;2023-10-19T10:41:23;11.10;98.00
26575;DHT22;67165;50.256;10.978;2023-10-19T10:43:55;11.20;98.00
26575;DHT22;67165;50.256;10.978;2023-10-19T10:46:22;11.20;98.00
26575;DHT22;67165;50.256;10.978;2023-10-19T10:48:48;11.20;98.00
26575;DHT22;67165;50.256;10.978;2023-10-19T10:51:18;11.20;98.00
26575;DHT22;67165;50.256;10.978;2023-10-19T10:53:47;11.00;98.00
26575;DHT22;67165;50.256;10.978;2023-10-19T10:56:13;11.00;98.00
26575;DHT22;67165;50.256;10.978;2023-10-19T10:58:38;10.90;98.00
26575;DHT22;67165;50.256;10.978;2023-10-19T11:01:05;10.90;98.00
26575;DHT22;67165;50.256;10.978;2023-10-19T11:03:31;10.90;98.00
26575;DHT22;67165;50.256;10.978;2023-10-19T11:06:06;10.80;98.00
26575;DHT22;67165;50.256;10.978;2023-10-19T11:08:36;10.90;98.00
26575;DHT22;67165;50.256;10.978;2023-10-19T11:11:04;10.90;98.00
26575;DHT22;67165;50.256;10.978;2023-10-19T11:13:30;10.80;98.00
26575;DHT22;67165;50.256;10.978;2023-10-19T11:15:58;10.70;98.00
26575;DHT22;67165;50.256;10.978;2023-10-19T11:18:34;10.80;98.00
26575;DHT22;67165;50.256;10.978;2023-10-19T11:21:09;10.90;98.00
26575;DHT22;67165;50.256;10.978;2023-10-19T11:23:40;10.90;98.00
26575;DHT22;67165;50.256;10.978;2023-10-19T11:26:06;11.00;98.00
26575;DHT22;67165;50.256;10.978;2023-10-19T11:28:33;11.00;98.00
26575;DHT22;67165;50.256;10.978;2023-10-19T11:31:12;11.10;98.00
26575;DHT22;67165;50.256;10.978;2023-10-19T11:33:41;11.20;98.00
26575;DHT22;67165;50.256;10.978;2023-10-19T11:36:08;11.20;98.00
26575;DHT22;67165;50.256;10.978;2023-10-19T11:38:33;11.30;98.00
26575;DHT22;67165;50.256;10.978;2023-10-19T11:40:59;11.40;98.00
26575;DHT22;67165;50.256;10.978;2023-10-19T11:43:25;11.50;98.00
26575;DHT22;67165;50.256;10.978;2023-10-19T11:45:50;11.60;98.00
26575;DHT22;67165;50.256;10.978;2023-10-19T11:48:17;11.70;98.00
26575;DHT22;67165;50.256;10.978;2023-10-19T11:50:42;11.70;98.00
26575;DHT22;67165;50.256;10.978;2023-10-19T11:53:08;11.70;98.00
26575;DHT22;67165;50.256;10.978;2023-10-19T11:55:35;11.70;98.00
26575;DHT22;67165;50.256;10.978;2023-10-19T11:58:01;11.70;98.00
26575;DHT22;67165;50.256;10.978;2023-10-19T12:00:26;11.80;98.00
26575;DHT22;67165;50.256;10.978;2023-10-19T12:02:59;11.90;98.00
26575;DHT22;67165;50.256;10.978;2023-10-19T12:05:25;11.90;98.00
26575;DHT22;67165;50.256;10.978;2023-10-19T12:07:50;11.90;98.00
26575;DHT22;67165;50.256;10.978;2023-10-19T12:10:17;12.00;98.00
26575;DHT22;67165;50.256;10.978;2023-10-19T12:12:45;12.20;98.00
26575;DHT22;67165;50.256;10.978;2023-10-19T12:15:12;12.30;98.00
26575;DHT22;67165;50.256;10.978;2023-10-19T12:17:38;12.40;98.00
26575;DHT22;67165;50.256;10.978;2023-10-19T12:20:04;12.60;98.00
26575;DHT22;67165;50.256;10.978;2023-10-19T12:22:32;12.60;98.00
26575;DHT22;67165;50.256;10.978;2023-10-19T12:25:03;12.70;98.00
26575;DHT22;67165;50.256;10.978;2023-10-19T12:27:29;12.60;98.00
26575;DHT22;67165;50.256;10.978;2023-10-19T12:29:55;12.60;98.00
26575;DHT22;67165;50.256;10.978;2023-10-19T12:32:21;12.60;98.00
26575;DHT22;67165;50.256;10.978;2023-10-19T12:34:47;12.70;98.00
26575;DHT22;67165;50.256;10.978;2023-10-19T12:37:19;12.70;98.00
26575;DHT22;67165;50.256;10.978;2023-10-19T12:39:45;12.70;98.00
26575;DHT22;67165;50.256;10.978;2023-10-19T12:42:14;12.90;98.00
26575;DHT22;67165;50.256;10.978;2023-10-19T12:44:40;13.00;98.00
26575;DHT22;67165;50.256;10.978;2023-10-19T12:47:07;13.10;98.00
26575;DHT22;67165;50.256;10.978;2023-10-19T12:49:42;13.00;98.00
26575;DHT22;67165;50.256;10.978;2023-10-19T12:52:08;13.00;98.00
26575;DHT22;67165;50.256;10.978;2023-10-19T12:54:37;13.00;98.00
26575;DHT22;67165;50.256;10.978;2023-10-19T12:57:04;12.90;98.00
26575;DHT22;67165;50.256;10.978;2023-10-19T12:59:34;13.00;98.00
26575;DHT22;67165;50.256;10.978;2023-10-19T13:01:59;12.80;98.00
26575;DHT22;67165;50.256;10.978;2023-10-19T13:04:28;12.80;98.00
26575;DHT22;67165;50.256;10.978;2023-10-19T13:06:56;12.90;98.00
26575;DHT22;67165;50.256;10.978;2023-10-19T13:09:24;12.90;98.00
26575;DHT22;67165;50.256;10.978;2023-10-19T13:11:57;12.90;98.00
26575;DHT22;67165;50.256;10.978;2023-10-19T13:14:22;13.00;98.00
26575;DHT22;67165;50.256;10.978;2023-10-19T13:16:48;12.90;98.00
26575;DHT22;67165;50.256;10.978;2023-10-19T13:19:16;12.90;98.00
26575;DHT22;67165;50.256;10.978;2023-10-19T13:21:47;12.80;98.00
26575;DHT22;67165;50.256;10.978;2023-10-19T13:24:14;12.80;98.00
26575;DHT22;67165;50.256;10.978;2023-10-19T13:26:40;12.80;98.00
26575;DHT22;67165;50.256;10.978;2023-10-19T13:29:07;12.90;98.00
26575;DHT22;67165;50.256;10.978;2023-10-19T13:31:33;12.80;98.00
26575;DHT22;67165;50.256;10.978;2023-10-19T13:34:00;12.90;98.00
26575;DHT22;67165;50.256;10.978;2023-10-19T13:36:28;12.90;98.00
26575;DHT22;67165;50.256;10.978;2023-10-19T13:38:54;12.90;98.00
26575;DHT22;67165;50.256;10.978;2023-10-19T13:41:20;12.90;98.00
26575;DHT22;67165;50.256;10.978;2023-10-19T13:43:46;12.90;98.00
26575;DHT22;67165;50.256;10.978;2023-10-19T13:46:12;12.90;98.00
26575;DHT22;67165;50.256;10.978;2023-10-19T13:48:38;12.90;98.00
26575;DHT22;67165;50.256;10.978;2023-10-19T13:51:06;12.90;98.00
26575;DHT22;67165;50.256;10.978;2023-10-19T13:53:41;12.90;98.00
26575;DHT22;67165;50.256;10.978;2023-10-19T13:56:08;12.90;98.00
26575;DHT22;67165;50.256;10.978;2023-10-19T13:58:34;12.90;98.00
26575;DHT22;67165;50.256;10.978;2023-10-19T14:01:00;12.90;98.00
26575;DHT22;67165;50.256;10.978;2023-10-19T14:03:26;12.90;98.00
26575;DHT22;67165;50.256;10.978;2023-10-19T14:05:52;12.90;98.00
26575;DHT22;67165;50.256;10.978;2023-10-19T14:08:21;12.90;98.00
26575;DHT22;67165;50.256;10.978;2023-10-19T14:10:47;12.90;98.00
26575;DHT22;67165;50.256;10.978;2023-10-19T14:13:13;12.90;98.00
26575;DHT22;67165;50.256;10.978;2023-10-19T14:15:42;12.90;98.00
26575;DHT22;67165;50.256;10.978;2023-10-19T14:18:08;12.90;98.00
26575;DHT22;67165;50.256;10.978;2023-10-19T14:20:34;12.90;98.00
26575;DHT22;67165;50.256;10.978;2023-10-19T14:23:01;12.90;98.00
26575;DHT22;67165;50.256;10.978;2023-10-19T14:25:30;12.90;98.00
26575;DHT22;67165;50.256;10.978;2023-10-19T14:27:56;12.90;98.00
26575;DHT22;67165;50.256;10.978;2023-10-19T14:30:27;12.80;98.00
26575;DHT22;67165;50.256;10.978;2023-10-19T14:32:54;12.80;98.00
26575;DHT22;67165;50.256;10.978;2023-10-19T14:35:21;12.80;98.00
26575;DHT22;67165;50.256;10.978;2023-10-19T14:37:49;12.80;98.00
26575;DHT22;67165;50.256;10.978;2023-10-19T14:40:21;12.90;98.00
26575;DHT22;67165;50.256;10.978;2023-10-19T14:42:47;12.80;98.00
26575;DHT22;67165;50.256;10.978;2023-10-19T14:45:17;12.80;98.00
26575;DHT22;67165;50.256;10.978;2023-10-19T14:47:50;12.80;98.00
26575;DHT22;67165;50.256;10.978;2023-10-19T14:50:21;12.90;98.00
26575;DHT22;67165;50.256;10.978;2023-10-19T14:52:50;12.80;98.00
26575;DHT22;67165;50.256;10.978;2023-10-19T14:55:17;12.90;98.00
26575;DHT22;67165;50.256;10.978;2023-10-19T14:57:44;12.90;98.00
26575;DHT22;67165;50.256;10.978;2023-10-19T15:00:11;12.90;98.00
26575;DHT22;67165;50.256;10.978;2023-10-19T15:02:45;12.90;98.00
26575;DHT22;67165;50.256;10.978;2023-10-19T15:05:11;12.80;98.00
26575;DHT22;67165;50.256;10.978;2023-10-19T15:07:48;12.80;98.00
26575;DHT22;67165;50.256;10.978;2023-10-19T15:10:19;12.70;98.00
26575;DHT22;67165;50.256;10.978;2023-10-19T15:12:45;12.60;98.00
26575;DHT22;67165;50.256;10.978;2023-10-19T15:15:11;12.60;98.00
26575;DHT22;67165;50.256;10.978;2023-10-19T15:17:37;12.60;98.00
26575;DHT22;67165;50.256;10.978;2023-10-19T15:20:05;12.50;98.00
26575;DHT22;67165;50.256;10.978;2023-10-19T15:22:32;12.50;98.00
26575;DHT22;67165;50.256;10.978;2023-10-19T15:24:58;12.50;98.00
26575;DHT22;67165;50.256;10.978;2023-10-19T15:27:24;12.50;98.00
26575;DHT22;67165;50.256;10.978;2023-10-19T15:29:50;12.50;98.00
26575;DHT22;67165;50.256;10.978;2023-10-19T15:32:15;12.50;98.00
26575;DHT22;67165;50.256;10.978;2023-10-19T15:34:42;12.50;98.00
26575;DHT22;67165;50.256;10.978;2023-10-19T15:37:08;12.50;98.00
26575;DHT22;67165;50.256;10.978;2023-10-19T15:39:34;12.50;98.00
26575;DHT22;67165;50.256;10.978;2023-10-19T15:42:00;12.50;98.00